Uranus L — 9LU2406 — position and weather

sailwx.info

Track history (hours):
 
Tides and Currents Weather Stations Pressure Air Temp Water Temp Dewpoint Dewpoint Depression Visibility Wind Speed Wind Dir Waves Ship Positions

Uranus L

Last reported at 2017-Dec-16 04:02 UTC. Time now 2017-Dec-16 17:00 UTC.
Position N 40°57' E 028°58'.

Length 84 m; draft 4.6 m.

Type: Cargo ship. MMSI: 667001603.

Date/timePositionNaut miles runAvg speedWind from/ knotsBaromVisibWave heightAir tempDewpointWater temp
2017-Dec-16 04:02N 40°57' E 028°58'0 7.4
2017-Dec-16 03:59N 40°56' E 028°58'5 7.9
2017-Dec-16 03:22N 40°52' E 028°54'3 7.4
2017-Dec-16 03:00N 40°51' E 028°50'227 6.8
2017-Dec-14 17:24N 37°60' E 025°38'4 8.3
2017-Dec-14 16:57N 37°56' E 025°40'4 8.4
2017-Dec-14 16:30N 37°53' E 025°42'5 8.4
2017-Dec-14 15:51N 37°48' E 025°44'7 8.2
2017-Dec-14 15:00N 37°41' E 025°48'6 8.0
2017-Dec-14 14:14N 37°35' E 025°50'2 7.6
2017-Dec-14 14:00N 37°34' E 025°51'4 7.6
2017-Dec-14 13:29N 37°30' E 025°53'4 7.8
2017-Dec-14 13:00N 37°27' E 025°55'4 7.6
2017-Dec-14 12:30N 37°25' E 025°59'4 7.2
2017-Dec-14 12:00N 37°22' E 026°03'4 7.1
2017-Dec-14 11:30N 37°20' E 026°06'4 7.5
2017-Dec-14 11:00N 37°18' E 026°10'4 7.6
2017-Dec-14 10:30N 37°16' E 026°14'4 7.6
2017-Dec-14 10:00N 37°13' E 026°17'4 7.7
2017-Dec-14 09:30N 37°11' E 026°21'4 7.8
2017-Dec-14 09:00N 37°08' E 026°25'4 7.7
2017-Dec-14 08:30N 37°06' E 026°29'4 7.8
2017-Dec-14 08:00N 37°04' E 026°33'5 8.3
2017-Dec-14 07:25N 37°01' E 026°38'4 8.8
2017-Dec-14 07:00N 36°57' E 026°39'4 9.0
2017-Dec-14 06:30N 36°53' E 026°41'6 9.0
2017-Dec-14 05:51N 36°47' E 026°43'4 9.7
2017-Dec-14 05:28N 36°44' E 026°45'11 9.3
2017-Dec-14 04:19N 36°34' E 026°48'3 8.9
2017-Dec-14 04:00N 36°31' E 026°50'13 7.5
2017-Dec-14 02:18N 36°18' E 026°52'3 8.5
2017-Dec-14 01:56N 36°15' E 026°51'4 8.4
2017-Dec-14 01:29N 36°12' E 026°49'4 8.5
2017-Dec-14 01:00N 36°08' E 026°47'4 8.5
2017-Dec-14 00:30N 36°04' E 026°46'4 8.8
2017-Dec-14 00:00N 35°60' E 026°44'6 8.8
2017-Dec-13 23:21N 35°54' E 026°41'74 7.9
2017-Dec-13 13:57N 34°49' E 025°58'4 8.5
2017-Dec-13 13:30N 34°47' E 025°54'10 9.0
2017-Dec-13 12:23N 34°44' E 025°43'5 4.7
2017-Dec-13 11:23N 34°40' E 025°41'  
2017-Dec-11 03:21N 34°47' E 025°42'17 1.2
2017-Dec-10 13:00N 34°35' E 025°57'  
Track history (hours):
 
Tides and Currents Weather Stations Pressure Air Temp Water Temp Dewpoint Dewpoint Depression Visibility Wind Speed Wind Dir Waves Ship Positions

Uranus L

Last reported at 2017-Dec-16 04:02 UTC. Time now 2017-Dec-16 17:00 UTC.
Position N 40°57' E 028°58'.

Length 84 m; draft 4.6 m.

Type: Cargo ship. MMSI: 667001603.

Date/timePositionNaut miles runAvg speedWind from/ knotsBaromVisibWave heightAir tempDewpointWater temp
2017-Dec-16 04:02N 40°57' E 028°58'0 7.4
2017-Dec-16 03:59N 40°56' E 028°58'5 7.9
2017-Dec-16 03:22N 40°52' E 028°54'3 7.4
2017-Dec-16 03:00N 40°51' E 028°50'227 6.8
2017-Dec-14 17:24N 37°60' E 025°38'4 8.3
2017-Dec-14 16:57N 37°56' E 025°40'4 8.4
2017-Dec-14 16:30N 37°53' E 025°42'5 8.4
2017-Dec-14 15:51N 37°48' E 025°44'7 8.2
2017-Dec-14 15:00N 37°41' E 025°48'6 8.0
2017-Dec-14 14:14N 37°35' E 025°50'2 7.6
2017-Dec-14 14:00N 37°34' E 025°51'4 7.6
2017-Dec-14 13:29N 37°30' E 025°53'4 7.8
2017-Dec-14 13:00N 37°27' E 025°55'4 7.6
2017-Dec-14 12:30N 37°25' E 025°59'4 7.2
2017-Dec-14 12:00N 37°22' E 026°03'4 7.1
2017-Dec-14 11:30N 37°20' E 026°06'4 7.5
2017-Dec-14 11:00N 37°18' E 026°10'4 7.6
2017-Dec-14 10:30N 37°16' E 026°14'4 7.6
2017-Dec-14 10:00N 37°13' E 026°17'4 7.7
2017-Dec-14 09:30N 37°11' E 026°21'4 7.8
2017-Dec-14 09:00N 37°08' E 026°25'4 7.7
2017-Dec-14 08:30N 37°06' E 026°29'4 7.8
2017-Dec-14 08:00N 37°04' E 026°33'5 8.3
2017-Dec-14 07:25N 37°01' E 026°38'4 8.8
2017-Dec-14 07:00N 36°57' E 026°39'4 9.0
2017-Dec-14 06:30N 36°53' E 026°41'6 9.0
2017-Dec-14 05:51N 36°47' E 026°43'4 9.7
2017-Dec-14 05:28N 36°44' E 026°45'11 9.3
2017-Dec-14 04:19N 36°34' E 026°48'3 8.9
2017-Dec-14 04:00N 36°31' E 026°50'13 7.5
2017-Dec-14 02:18N 36°18' E 026°52'3 8.5
2017-Dec-14 01:56N 36°15' E 026°51'4 8.4
2017-Dec-14 01:29N 36°12' E 026°49'4 8.5
2017-Dec-14 01:00N 36°08' E 026°47'4 8.5
2017-Dec-14 00:30N 36°04' E 026°46'4 8.8
2017-Dec-14 00:00N 35°60' E 026°44'6 8.8
2017-Dec-13 23:21N 35°54' E 026°41'74 7.9
2017-Dec-13 13:57N 34°49' E 025°58'4 8.5
2017-Dec-13 13:30N 34°47' E 025°54'10 9.0
2017-Dec-13 12:23N 34°44' E 025°43'5 4.7
2017-Dec-13 11:23N 34°40' E 025°41'  
2017-Dec-11 03:21N 34°47' E 025°42'17 1.2
2017-Dec-10 13:00N 34°35' E 025°57'  

Dump ship's entire track history